createdAt,value
2023-04-11T00:01:38.094Z,7.30
2023-04-11T00:04:06.410Z,7.00
2023-04-11T00:06:34.560Z,7.60
2023-04-11T00:09:02.456Z,7.10
2023-04-11T00:11:32.305Z,7.30
2023-04-11T00:14:00.258Z,8.30
2023-04-11T00:16:30.310Z,7.20
2023-04-11T00:18:58.338Z,7.10
2023-04-11T00:21:26.366Z,5.90
2023-04-11T00:23:55.419Z,7.70
2023-04-11T00:26:23.566Z,7.80
2023-04-11T00:28:53.359Z,7.80
2023-04-11T00:31:21.827Z,6.10
2023-04-11T00:33:49.774Z,6.80
2023-04-11T00:36:17.812Z,6.40
2023-04-11T00:38:46.623Z,6.10
2023-04-11T00:41:17.832Z,7.10
2023-04-11T00:43:49.773Z,6.00
2023-04-11T00:46:18.603Z,6.70
2023-04-11T00:48:47.170Z,6.00
2023-04-11T00:51:25.813Z,5.80
2023-04-11T00:53:56.719Z,6.60
2023-04-11T00:56:24.714Z,6.50
2023-04-11T00:58:53.705Z,6.10
2023-04-11T01:01:25.183Z,6.80
2023-04-11T01:03:54.039Z,6.50
2023-04-11T01:06:22.839Z,7.00
2023-04-11T01:08:54.678Z,6.40
2023-04-11T01:11:23.433Z,5.80
2023-04-11T01:13:51.314Z,5.60
2023-04-11T01:16:21.811Z,5.70
2023-04-11T01:18:50.025Z,6.00
2023-04-11T01:21:19.521Z,7.00
2023-04-11T01:23:48.876Z,6.80
2023-04-11T01:26:16.800Z,6.60
2023-04-11T01:28:44.824Z,6.50
2023-04-11T01:31:13.012Z,7.90
2023-04-11T01:33:41.334Z,6.50
2023-04-11T01:36:09.571Z,6.20
2023-04-11T01:38:38.692Z,7.10
2023-04-11T01:41:06.876Z,6.90
2023-04-11T01:43:35.425Z,5.70
2023-04-11T01:46:03.271Z,5.10
2023-04-11T01:48:34.068Z,6.00
2023-04-11T01:51:02.012Z,6.10
2023-04-11T01:53:29.896Z,5.10
2023-04-11T01:55:58.932Z,6.20
2023-04-11T01:58:26.840Z,5.70
2023-04-11T02:00:55.690Z,5.40
2023-04-11T02:03:24.373Z,5.40
2023-04-11T02:05:52.416Z,5.90
2023-04-11T02:08:28.251Z,6.90
2023-04-11T02:10:57.288Z,5.70
2023-04-11T02:13:25.279Z,5.50
2023-04-11T02:15:53.638Z,7.00
2023-04-11T02:18:25.133Z,5.70
2023-04-11T02:20:53.266Z,5.70
2023-04-11T02:23:24.312Z,7.50
2023-04-11T02:25:52.669Z,6.30
2023-04-11T02:28:21.209Z,5.60
2023-04-11T02:30:51.258Z,6.30
2023-04-11T02:33:20.651Z,8.10
2023-04-11T02:35:48.583Z,6.40
2023-04-11T02:38:17.818Z,7.30
2023-04-11T02:40:47.458Z,6.60
2023-04-11T02:43:18.957Z,7.10
2023-04-11T02:45:46.941Z,6.50
2023-04-11T02:48:15.740Z,6.70
2023-04-11T02:50:46.860Z,6.60
2023-04-11T02:53:16.612Z,6.80
2023-04-11T02:55:49.476Z,6.90
2023-04-11T02:58:20.212Z,7.10
2023-04-11T03:00:49.370Z,6.30
2023-04-11T03:03:26.537Z,6.70
2023-04-11T03:05:57.077Z,5.30
2023-04-11T03:08:25.684Z,6.80
2023-04-11T03:10:56.783Z,5.80
2023-04-11T03:13:26.330Z,6.40
2023-04-11T03:15:54.339Z,7.40
2023-04-11T03:18:23.265Z,6.70
2023-04-11T03:20:51.912Z,7.40
2023-04-11T03:23:20.322Z,7.70
2023-04-11T03:25:51.079Z,7.30
2023-04-11T03:28:19.365Z,7.50
2023-04-11T03:30:48.922Z,6.80
2023-04-11T03:33:20.544Z,7.80
2023-04-11T03:35:48.443Z,6.80
2023-04-11T03:38:16.936Z,8.40
2023-04-11T03:40:44.783Z,7.30
2023-04-11T03:43:17.361Z,6.60
2023-04-11T03:45:45.708Z,7.80
2023-04-11T03:48:29.772Z,7.40
2023-04-11T03:51:03.918Z,7.20
2023-04-11T03:53:43.826Z,7.20
2023-04-11T03:56:22.434Z,7.20
2023-04-11T03:58:50.433Z,7.10
2023-04-11T04:01:18.766Z,7.00
2023-04-11T04:03:48.565Z,6.60
2023-04-11T04:06:17.262Z,6.70
2023-04-11T04:08:46.494Z,6.60
2023-04-11T04:11:15.264Z,7.20
2023-04-11T04:13:43.625Z,6.40
2023-04-11T04:16:17.034Z,6.20
2023-04-11T04:18:48.417Z,5.80
2023-04-11T04:21:16.770Z,5.50
2023-04-11T04:23:49.065Z,6.10
2023-04-11T04:26:17.177Z,5.30
2023-04-11T04:29:04.810Z,5.90
2023-04-11T04:31:43.774Z,6.90
2023-04-11T04:34:12.019Z,7.00
2023-04-11T04:36:47.838Z,8.60
2023-04-11T04:39:19.056Z,8.70
2023-04-11T04:41:58.127Z,8.30
2023-04-11T04:44:28.220Z,8.10
2023-04-11T04:46:59.033Z,8.80
2023-04-11T04:49:28.468Z,9.30
2023-04-11T04:51:56.327Z,8.10
2023-04-11T04:54:31.326Z,7.70
2023-04-11T04:57:00.036Z,8.60
2023-04-11T04:59:28.193Z,7.60
2023-04-11T05:02:01.064Z,7.50
2023-04-11T05:04:30.492Z,7.80
2023-04-11T05:07:00.364Z,7.70
2023-04-11T05:09:31.003Z,5.80
2023-04-11T05:12:11.794Z,7.00
2023-04-11T05:14:40.189Z,6.60
2023-04-11T05:17:12.046Z,4.30
2023-04-11T05:19:41.014Z,6.30
2023-04-11T05:22:09.446Z,5.00
2023-04-11T05:24:40.860Z,4.40
2023-04-11T05:27:10.451Z,4.60
2023-04-11T05:29:38.497Z,3.40
2023-04-11T05:34:58.698Z,4.40
2023-04-11T05:37:45.083Z,3.00
2023-04-11T05:40:14.411Z,4.00
2023-04-11T05:42:43.031Z,4.80
2023-04-11T05:45:12.322Z,3.60
2023-04-11T05:47:40.956Z,3.30
2023-04-11T05:50:10.625Z,2.90
2023-04-11T05:52:38.992Z,3.30
2023-04-11T05:55:07.854Z,3.60
2023-04-11T05:57:41.337Z,4.30
2023-04-11T06:00:14.410Z,3.30
2023-04-11T06:02:43.765Z,4.30
2023-04-11T06:05:18.062Z,4.10
2023-04-11T06:07:47.817Z,3.60
2023-04-11T06:10:15.811Z,4.00
2023-04-11T06:15:19.383Z,2.40
2023-04-11T06:17:47.370Z,3.10
2023-04-11T06:20:17.633Z,2.40
2023-04-11T06:22:47.003Z,3.60
2023-04-11T06:25:15.824Z,2.40
2023-04-11T06:27:45.640Z,2.80
2023-04-11T06:30:14.548Z,3.40
2023-04-11T06:32:43.525Z,3.10
2023-04-11T06:35:12.457Z,3.30
2023-04-11T06:37:42.368Z,3.40
2023-04-11T06:40:13.229Z,2.80
2023-04-11T06:42:42.241Z,3.70
2023-04-11T06:45:12.095Z,2.60
2023-04-11T06:47:40.413Z,4.00
2023-04-11T06:50:08.818Z,3.30
2023-04-11T06:52:36.942Z,3.20
2023-04-11T06:55:07.333Z,2.40
2023-04-11T06:57:35.271Z,2.60
2023-04-11T07:00:07.047Z,1.70
2023-04-11T07:02:36.409Z,1.70
2023-04-11T07:05:05.693Z,2.30
2023-04-11T07:07:34.000Z,1.70
2023-04-11T07:10:01.950Z,1.70
2023-04-11T07:12:30.000Z,1.60
2023-04-11T07:15:04.869Z,1.10
2023-04-11T07:17:33.878Z,1.50
2023-04-11T07:20:01.968Z,1.40
2023-04-11T07:22:30.288Z,1.50
2023-04-11T07:24:58.575Z,1.20
2023-04-11T07:27:26.642Z,1.10
2023-04-11T07:29:56.369Z,1.40
2023-04-11T07:32:24.444Z,1.20
2023-04-11T07:34:52.422Z,1.60
2023-04-11T07:37:20.759Z,1.30
2023-04-11T07:39:48.923Z,1.30
2023-04-11T07:42:17.317Z,1.30
2023-04-11T07:44:45.117Z,1.30
2023-04-11T07:47:18.907Z,1.30
2023-04-11T07:49:46.906Z,1.10
2023-04-11T07:52:14.974Z,1.20
2023-04-11T07:54:43.878Z,1.20
2023-04-11T07:57:11.789Z,1.00
2023-04-11T07:59:40.237Z,1.30
2023-04-11T08:02:09.128Z,1.30
2023-04-11T08:04:37.578Z,1.20
2023-04-11T08:07:06.975Z,0.90
2023-04-11T08:09:36.305Z,1.00
2023-04-11T08:12:04.588Z,1.20
2023-04-11T08:14:35.982Z,1.20
2023-04-11T08:17:12.047Z,1.10
2023-04-11T08:19:45.992Z,1.20
2023-04-11T08:22:16.253Z,0.90
2023-04-11T08:24:44.279Z,0.90
2023-04-11T08:27:12.269Z,1.10
2023-04-11T08:29:42.836Z,1.00
2023-04-11T08:32:10.831Z,1.20
2023-04-11T08:34:39.171Z,1.20
2023-04-11T08:37:07.565Z,1.00
2023-04-11T08:39:36.224Z,1.20
2023-04-11T08:42:04.962Z,1.20
2023-04-11T08:44:33.362Z,1.00
2023-04-11T08:47:02.621Z,0.90
2023-04-11T08:49:30.541Z,1.30
2023-04-11T08:51:58.381Z,0.90
2023-04-11T08:54:26.280Z,0.90
2023-04-11T08:56:54.165Z,1.00
2023-04-11T08:59:27.413Z,1.00
2023-04-11T09:02:06.368Z,0.90
2023-04-11T09:04:41.492Z,1.00
2023-04-11T09:07:15.762Z,0.80
2023-04-11T09:09:43.664Z,0.80
2023-04-11T09:12:14.556Z,0.90
2023-04-11T09:14:43.187Z,0.90
2023-04-11T09:17:14.418Z,0.90
2023-04-11T09:19:42.443Z,1.20
2023-04-11T09:22:11.097Z,1.40
2023-04-11T09:24:39.322Z,1.00
2023-04-11T09:27:11.334Z,0.90
2023-04-11T09:29:47.411Z,1.00
2023-04-11T09:32:34.619Z,0.80
2023-04-11T09:35:20.361Z,1.20
2023-04-11T09:37:58.986Z,1.00
2023-04-11T09:40:28.638Z,1.00
2023-04-11T09:43:00.669Z,1.00
2023-04-11T09:45:30.897Z,0.80
2023-04-11T09:48:00.685Z,1.10
2023-04-11T09:50:29.908Z,0.80
2023-04-11T09:52:59.229Z,1.00
2023-04-11T09:55:27.717Z,1.10
2023-04-11T09:57:55.583Z,0.80
2023-04-11T10:00:29.174Z,0.80
2023-04-11T10:02:57.651Z,0.90
2023-04-11T10:05:27.486Z,0.80
2023-04-11T10:08:08.033Z,0.60
2023-04-11T10:10:36.203Z,0.90
2023-04-11T10:13:38.572Z,0.90
2023-04-11T10:16:15.021Z,0.90
2023-04-11T10:18:55.321Z,0.60
2023-04-11T10:21:29.069Z,0.90
2023-04-11T10:24:10.568Z,0.70
2023-04-11T10:26:59.232Z,0.60
2023-04-11T10:29:43.050Z,0.70
2023-04-11T10:32:20.092Z,0.60
2023-04-11T10:34:50.791Z,0.80
2023-04-11T10:37:35.147Z,0.70
2023-04-11T10:40:21.116Z,0.70
2023-04-11T10:42:50.277Z,0.80
2023-04-11T10:45:28.705Z,0.90
2023-04-11T10:48:00.968Z,1.00
2023-04-11T10:50:40.865Z,0.80
2023-04-11T10:53:14.256Z,0.80
2023-04-11T10:55:50.015Z,0.80
2023-04-11T10:58:22.196Z,1.00
2023-04-11T11:00:56.554Z,0.70
2023-04-11T11:03:28.120Z,0.60
2023-04-11T11:05:59.869Z,0.60
2023-04-11T11:08:30.686Z,0.70
2023-04-11T11:11:03.126Z,0.60
2023-04-11T11:13:44.000Z,0.60
2023-04-11T11:16:16.623Z,0.70
2023-04-11T11:18:46.770Z,0.80
2023-04-11T11:21:20.759Z,0.60
2023-04-11T11:23:57.476Z,0.70
2023-04-11T11:26:41.906Z,0.70
2023-04-11T11:31:48.015Z,0.80
2023-04-11T11:34:26.270Z,0.70
2023-04-11T11:36:56.375Z,0.70
2023-04-11T11:39:24.513Z,1.20
2023-04-11T11:41:53.683Z,0.70
2023-04-11T11:44:23.562Z,0.80
2023-04-11T11:47:18.203Z,0.80
2023-04-11T11:49:50.270Z,0.70
2023-04-11T11:52:42.602Z,0.60
2023-04-11T11:55:19.698Z,0.70
2023-04-11T11:57:48.978Z,0.70
2023-04-11T12:00:24.342Z,0.70
2023-04-11T12:02:56.466Z,0.70
2023-04-11T12:05:25.005Z,0.80
2023-04-11T12:07:54.838Z,0.80
2023-04-11T12:10:22.897Z,0.70
2023-04-11T12:12:52.833Z,0.70
2023-04-11T12:15:23.768Z,0.70
2023-04-11T12:17:52.611Z,1.20
2023-04-11T12:20:24.662Z,1.00
2023-04-11T12:22:54.512Z,0.70
2023-04-11T12:25:23.073Z,0.70
2023-04-11T12:27:51.356Z,1.00
2023-04-11T12:30:19.473Z,1.00
2023-04-11T12:32:51.103Z,0.80
2023-04-11T12:35:19.284Z,0.80
2023-04-11T12:37:47.182Z,0.80
2023-04-11T12:40:15.399Z,0.70
2023-04-11T12:42:55.226Z,1.10
2023-04-11T12:45:26.047Z,0.80
2023-04-11T12:47:54.586Z,0.80
2023-04-11T12:50:25.912Z,1.10
2023-04-11T12:52:56.245Z,0.80
2023-04-11T12:55:24.652Z,0.70
2023-04-11T12:57:55.304Z,0.70
2023-04-11T13:00:23.810Z,1.00
2023-04-11T13:03:12.331Z,0.70
2023-04-11T13:05:43.616Z,1.00
2023-04-11T13:08:11.647Z,0.70
2023-04-11T13:10:39.703Z,0.80
2023-04-11T13:13:17.537Z,0.70
2023-04-11T13:15:46.621Z,1.00
2023-04-11T13:18:14.511Z,0.60
2023-04-11T13:20:46.090Z,0.70
2023-04-11T13:23:16.627Z,0.90
2023-04-11T13:25:48.556Z,0.60
2023-04-11T13:28:16.883Z,0.70
2023-04-11T13:30:44.815Z,0.80
2023-04-11T13:33:12.784Z,0.80
2023-04-11T13:35:40.992Z,0.70
2023-04-11T13:38:11.454Z,0.70
2023-04-11T13:40:41.196Z,0.70
2023-04-11T13:43:10.988Z,0.50
2023-04-11T13:45:39.289Z,0.70
2023-04-11T13:48:08.096Z,0.70
2023-04-11T13:50:37.715Z,0.80
2023-04-11T13:53:05.576Z,0.60
2023-04-11T13:55:34.141Z,0.60
2023-04-11T13:58:02.290Z,0.70
2023-04-11T14:00:39.155Z,0.70
2023-04-11T14:03:07.607Z,0.70
2023-04-11T14:05:36.717Z,0.70
2023-04-11T14:08:09.672Z,0.60
2023-04-11T14:10:39.302Z,0.70
2023-04-11T14:13:07.338Z,0.80
2023-04-11T14:15:36.791Z,0.70
2023-04-11T14:18:05.079Z,0.70
2023-04-11T14:20:38.363Z,0.90
2023-04-11T14:23:06.521Z,1.10
2023-04-11T14:25:34.540Z,0.60
2023-04-11T14:28:03.457Z,0.90
2023-04-11T14:30:32.346Z,0.80
2023-04-11T14:33:01.223Z,0.70
2023-04-11T14:35:30.030Z,0.70
2023-04-11T14:37:58.261Z,0.60
2023-04-11T14:40:26.842Z,0.70
2023-04-11T14:42:57.902Z,0.70
2023-04-11T14:47:57.561Z,0.90
2023-04-11T14:50:26.991Z,0.80
2023-04-11T14:52:57.414Z,0.70
2023-04-11T14:55:25.666Z,0.80
2023-04-11T14:57:54.990Z,0.80
2023-04-11T15:00:24.982Z,0.90
2023-04-11T15:02:55.082Z,0.90
2023-04-11T15:05:23.524Z,1.00
2023-04-11T15:07:53.262Z,0.80
2023-04-11T15:10:23.321Z,0.90
2023-04-11T15:12:51.346Z,1.10
2023-04-11T15:15:19.395Z,1.60
2023-04-11T15:17:49.295Z,1.20
2023-04-11T15:20:20.023Z,1.20
2023-04-11T15:22:48.239Z,1.30
2023-04-11T15:25:16.863Z,1.50
2023-04-11T15:27:44.861Z,1.30
2023-04-11T15:30:13.719Z,1.40
2023-04-11T15:32:43.683Z,2.50
2023-04-11T15:35:12.334Z,2.30
2023-04-11T15:37:42.243Z,1.20
2023-04-11T15:40:15.297Z,1.10
2023-04-11T15:42:44.429Z,1.20
2023-04-11T15:45:13.385Z,1.50
2023-04-11T15:47:41.334Z,1.50
2023-04-11T15:50:10.227Z,1.60
2023-04-11T15:52:38.211Z,1.70
2023-04-11T15:55:06.956Z,1.40
2023-04-11T15:57:35.859Z,0.90
2023-04-11T16:00:09.147Z,1.40
2023-04-11T16:02:39.717Z,1.50
2023-04-11T16:05:08.620Z,1.40
2023-04-11T16:07:37.256Z,1.40
2023-04-11T16:10:07.807Z,1.50
2023-04-11T16:12:36.363Z,2.00
2023-04-11T16:15:07.165Z,1.50
2023-04-11T16:17:39.317Z,1.90
2023-04-11T16:20:11.185Z,1.70
2023-04-11T16:22:39.928Z,1.70
2023-04-11T16:25:08.767Z,2.00
2023-04-11T16:27:37.217Z,2.20
2023-04-11T16:30:06.187Z,1.70
2023-04-11T16:32:34.922Z,1.80
2023-04-11T16:35:03.132Z,1.60
2023-04-11T16:37:31.205Z,1.40
2023-04-11T16:40:00.263Z,1.90
2023-04-11T16:42:28.112Z,1.70
2023-04-11T16:44:56.484Z,2.10
2023-04-11T16:47:26.339Z,2.80
2023-04-11T16:49:55.004Z,3.10
2023-04-11T16:52:23.652Z,2.80
2023-04-11T16:54:54.868Z,2.10
2023-04-11T16:57:22.893Z,2.30
2023-04-11T16:59:51.682Z,1.80
2023-04-11T17:02:19.757Z,1.70
2023-04-11T17:04:47.762Z,1.60
2023-04-11T17:07:18.139Z,1.30
2023-04-11T17:09:47.454Z,1.80
2023-04-11T17:12:15.448Z,1.30
2023-04-11T17:14:52.713Z,1.60
2023-04-11T17:17:20.923Z,2.50
2023-04-11T17:19:48.728Z,2.20
2023-04-11T17:22:18.128Z,3.20
2023-04-11T17:24:46.287Z,2.80
2023-04-11T17:27:16.441Z,2.10
2023-04-11T17:29:47.289Z,2.20
2023-04-11T17:32:15.121Z,3.70
2023-04-11T17:34:43.191Z,5.20
2023-04-11T17:37:11.702Z,3.90
2023-04-11T17:39:39.668Z,2.50
2023-04-11T17:42:14.656Z,2.70
2023-04-11T17:44:43.296Z,3.00
2023-04-11T17:47:11.364Z,1.50
2023-04-11T17:49:39.833Z,1.80
2023-04-11T17:52:08.823Z,2.10
2023-04-11T17:54:38.373Z,2.00
2023-04-11T17:57:07.762Z,2.80
2023-04-11T17:59:39.537Z,2.40
2023-04-11T18:02:08.177Z,3.10
2023-04-11T18:04:36.531Z,3.00
2023-04-11T18:07:08.181Z,3.30
2023-04-11T18:09:37.965Z,3.00
2023-04-11T18:12:06.359Z,3.30
2023-04-11T18:14:42.919Z,2.90
2023-04-11T18:17:12.054Z,3.70
2023-04-11T18:19:40.409Z,3.00
2023-04-11T18:22:10.649Z,2.60
2023-04-11T18:24:38.672Z,3.90
2023-04-11T18:27:06.719Z,2.90
2023-04-11T18:29:35.726Z,2.80
2023-04-11T18:32:03.971Z,2.60
2023-04-11T18:34:31.825Z,2.30
2023-04-11T18:36:59.686Z,3.60
2023-04-11T18:39:28.048Z,4.10
2023-04-11T18:41:56.002Z,2.10
2023-04-11T18:44:24.103Z,3.60
2023-04-11T18:46:54.573Z,3.20
2023-04-11T18:49:24.378Z,2.40
2023-04-11T18:51:52.989Z,2.00
2023-04-11T18:54:23.428Z,2.30
2023-04-11T18:59:23.529Z,2.00
2023-04-11T19:01:53.164Z,2.60
2023-04-11T19:04:23.090Z,2.70
2023-04-11T19:06:51.701Z,2.60
2023-04-11T19:09:23.745Z,2.20
2023-04-11T19:11:51.857Z,3.00
2023-04-11T19:14:19.739Z,3.30
2023-04-11T19:16:47.690Z,2.80
2023-04-11T19:19:15.725Z,2.90
2023-04-11T19:21:43.537Z,3.40
2023-04-11T19:24:11.636Z,5.20
2023-04-11T19:26:41.014Z,5.10
2023-04-11T19:29:10.912Z,3.20
2023-04-11T19:31:40.096Z,3.60
2023-04-11T19:34:08.509Z,3.30
2023-04-11T19:36:36.825Z,1.80
2023-04-11T19:39:05.040Z,1.70
2023-04-11T19:41:32.938Z,2.30
2023-04-11T19:44:01.276Z,2.40
2023-04-11T19:46:29.780Z,2.20
2023-04-11T19:48:58.044Z,2.30
2023-04-11T19:51:26.368Z,2.20
2023-04-11T19:53:56.662Z,2.10
2023-04-11T19:56:24.779Z,2.70
2023-04-11T19:58:52.639Z,2.10
2023-04-11T20:01:20.829Z,2.60
2023-04-11T20:03:53.611Z,3.10
2023-04-11T20:06:22.767Z,2.30
2023-04-11T20:08:51.271Z,2.20
2023-04-11T20:11:22.163Z,2.00
2023-04-11T20:13:50.192Z,2.40
2023-04-11T20:16:23.289Z,1.70
2023-04-11T20:18:52.386Z,1.80
2023-04-11T20:21:20.562Z,2.10
2023-04-11T20:23:49.869Z,2.30
2023-04-11T20:26:18.125Z,2.10
2023-04-11T20:28:46.168Z,2.20
2023-04-11T20:31:14.135Z,1.80
2023-04-11T20:33:44.234Z,2.90
2023-04-11T20:36:15.637Z,1.30
2023-04-11T20:38:44.738Z,1.50
2023-04-11T20:41:13.611Z,1.50
2023-04-11T20:43:42.269Z,1.80
2023-04-11T20:46:13.416Z,1.20
2023-04-11T20:48:42.769Z,1.30
2023-04-11T20:51:11.359Z,1.10
2023-04-11T20:53:39.620Z,1.30
2023-04-11T20:56:07.996Z,1.10
2023-04-11T20:58:35.950Z,1.10
2023-04-11T21:01:04.602Z,1.20
2023-04-11T21:03:37.440Z,0.90
2023-04-11T21:06:07.694Z,1.10
2023-04-11T21:08:38.062Z,1.20
2023-04-11T21:11:06.358Z,0.90
2023-04-11T21:13:34.880Z,1.00
2023-04-11T21:16:04.551Z,1.20
2023-04-11T21:18:36.110Z,1.10
2023-04-11T21:21:08.354Z,1.30
2023-04-11T21:23:41.275Z,1.10
2023-04-11T21:26:09.345Z,1.70
2023-04-11T21:28:44.209Z,1.10
2023-04-11T21:31:31.919Z,1.10
2023-04-11T21:34:00.560Z,1.50
2023-04-11T21:36:29.548Z,1.30
2023-04-11T21:38:58.169Z,0.90
2023-04-11T21:41:28.923Z,1.10
2023-04-11T21:43:57.042Z,1.10
2023-04-11T21:46:29.276Z,1.20
2023-04-11T21:48:57.281Z,1.20
2023-04-11T21:51:26.618Z,0.90
2023-04-11T21:53:54.926Z,1.50
2023-04-11T21:56:22.987Z,1.40
2023-04-11T21:58:53.601Z,0.80
2023-04-11T22:01:23.947Z,1.00
2023-04-11T22:03:52.329Z,0.80
2023-04-11T22:06:20.626Z,1.10
2023-04-11T22:08:50.877Z,0.90
2023-04-11T22:11:19.006Z,1.00
2023-04-11T22:13:49.658Z,1.30
2023-04-11T22:16:18.898Z,1.00
2023-04-11T22:18:47.010Z,1.20
2023-04-11T22:21:20.640Z,1.20
2023-04-11T22:23:54.304Z,0.90
2023-04-11T22:26:35.134Z,1.00
2023-04-11T22:29:05.866Z,0.90
2023-04-11T22:31:34.800Z,0.90
2023-04-11T22:34:02.930Z,1.10
2023-04-11T22:36:35.650Z,1.00
2023-04-11T22:39:05.203Z,0.90
2023-04-11T22:41:40.872Z,0.80
2023-04-11T22:44:09.239Z,0.80
2023-04-11T22:46:39.231Z,1.00
2023-04-11T22:49:09.990Z,1.00
2023-04-11T22:51:38.078Z,1.30
2023-04-11T22:54:05.912Z,1.40
2023-04-11T22:56:33.987Z,1.20
2023-04-11T22:59:04.015Z,1.20
2023-04-11T23:01:33.158Z,1.10
2023-04-11T23:04:02.007Z,1.30
2023-04-11T23:06:31.100Z,1.20
2023-04-11T23:08:59.404Z,1.10
2023-04-11T23:11:27.536Z,1.50
2023-04-11T23:13:56.798Z,1.00
2023-04-11T23:16:26.255Z,1.20
2023-04-11T23:18:55.478Z,1.00
2023-04-11T23:21:23.979Z,1.30
2023-04-11T23:23:52.670Z,1.40
2023-04-11T23:26:20.809Z,2.10
2023-04-11T23:28:50.470Z,1.10
2023-04-11T23:31:18.646Z,1.20
2023-04-11T23:33:46.539Z,1.30
2023-04-11T23:36:16.815Z,1.60
2023-04-11T23:38:46.305Z,1.10
2023-04-11T23:41:17.597Z,1.50
2023-04-11T23:43:46.927Z,0.90
2023-04-11T23:48:43.483Z,1.30
2023-04-11T23:51:11.457Z,1.20
2023-04-11T23:53:40.404Z,1.10
2023-04-11T23:56:09.169Z,1.40
2023-04-11T23:58:37.867Z,1.40
